createdAt,value
2023-05-01T00:02:03.885Z,59.59
2023-05-01T00:04:30.642Z,59.47
2023-05-01T00:06:57.774Z,59.47
2023-05-01T00:09:27.565Z,59.53
2023-05-01T00:11:54.290Z,59.51
2023-05-01T00:14:21.125Z,59.54
2023-05-01T00:16:48.102Z,59.62
2023-05-01T00:19:19.034Z,59.78
2023-05-01T00:21:49.176Z,59.78
2023-05-01T00:24:17.176Z,59.82
2023-05-01T00:26:45.104Z,59.69
2023-05-01T00:29:11.971Z,59.59
2023-05-01T00:31:39.081Z,59.48
2023-05-01T00:34:06.206Z,59.66
2023-05-01T00:36:33.096Z,59.82
2023-05-01T00:38:59.876Z,59.78
2023-05-01T00:41:27.718Z,59.84
2023-05-01T00:43:54.616Z,59.77
2023-05-01T00:46:21.818Z,59.91
2023-05-01T00:48:48.741Z,59.65
2023-05-01T00:51:15.914Z,59.84
2023-05-01T00:53:43.467Z,59.92
2023-05-01T00:56:11.697Z,59.89
2023-05-01T00:58:39.310Z,59.90
2023-05-01T01:01:08.983Z,60.00
2023-05-01T01:03:36.326Z,59.78
2023-05-01T01:06:39.239Z,60.03
2023-05-01T01:09:18.366Z,59.93
2023-05-01T01:11:47.827Z,59.93
2023-05-01T01:14:37.487Z,59.92
2023-05-01T01:17:30.284Z,60.00
2023-05-01T01:20:11.133Z,59.79
2023-05-01T01:22:41.405Z,60.06
2023-05-01T01:25:13.878Z,60.04
2023-05-01T01:27:49.356Z,59.88
2023-05-01T01:30:34.635Z,60.02
2023-05-01T01:33:36.118Z,59.78
2023-05-01T01:36:08.226Z,60.00
2023-05-01T01:38:46.497Z,60.04
2023-05-01T01:41:15.167Z,60.05
2023-05-01T01:43:46.404Z,59.92
2023-05-01T01:46:17.914Z,59.93
2023-05-01T01:48:47.942Z,59.92
2023-05-01T01:51:18.349Z,59.78
2023-05-01T01:53:51.804Z,60.01
2023-05-01T01:56:21.613Z,60.00
2023-05-01T01:58:48.703Z,60.08
2023-05-01T02:01:17.826Z,59.94
2023-05-01T02:03:47.200Z,60.06
2023-05-01T02:06:14.277Z,60.10
2023-05-01T02:08:43.804Z,60.02
2023-05-01T02:11:14.664Z,60.10
2023-05-01T02:13:44.180Z,60.18
2023-05-01T02:16:13.464Z,60.19
2023-05-01T02:18:40.690Z,60.37
2023-05-01T02:21:08.338Z,60.38
2023-05-01T02:23:38.458Z,60.29
2023-05-01T02:26:07.266Z,60.29
2023-05-01T02:28:36.011Z,60.09
2023-05-01T02:31:02.858Z,59.95
2023-05-01T02:33:29.763Z,60.40
2023-05-01T02:35:57.537Z,60.08
2023-05-01T02:38:24.313Z,60.26
2023-05-01T02:40:56.661Z,60.22
2023-05-01T02:43:26.914Z,60.30
2023-05-01T02:45:55.142Z,60.22
2023-05-01T02:48:25.755Z,60.32
2023-05-01T02:50:55.585Z,60.30
2023-05-01T02:53:22.998Z,60.31
2023-05-01T02:55:53.976Z,60.36
2023-05-01T02:58:21.309Z,60.16
2023-05-01T03:00:51.100Z,60.22
2023-05-01T03:03:19.248Z,60.16
2023-05-01T03:05:46.230Z,60.26
2023-05-01T03:08:13.638Z,60.27
2023-05-01T03:10:43.287Z,60.36
2023-05-01T03:13:11.281Z,60.39
2023-05-01T03:15:38.690Z,60.29
2023-05-01T03:18:06.543Z,60.46
2023-05-01T03:20:34.207Z,60.30
2023-05-01T03:23:02.044Z,60.48
2023-05-01T03:25:29.546Z,60.34
2023-05-01T03:27:56.314Z,60.37
2023-05-01T03:30:23.341Z,60.37
2023-05-01T03:32:51.743Z,60.33
2023-05-01T03:35:24.214Z,60.57
2023-05-01T03:37:51.422Z,60.64
2023-05-01T03:40:38.228Z,60.30
2023-05-01T03:43:24.747Z,60.47
2023-05-01T03:45:52.575Z,60.56
2023-05-01T03:48:20.405Z,60.60
2023-05-01T03:50:47.099Z,60.57
2023-05-01T03:53:14.792Z,60.47
2023-05-01T03:55:41.758Z,60.52
2023-05-01T03:58:10.649Z,60.59
2023-05-01T04:00:38.845Z,60.49
2023-05-01T04:03:06.236Z,60.63
2023-05-01T04:05:36.061Z,60.62
2023-05-01T04:08:04.397Z,60.68
2023-05-01T04:10:31.088Z,60.89
2023-05-01T04:13:02.456Z,60.86
2023-05-01T04:15:29.164Z,61.08
2023-05-01T04:17:56.887Z,60.81
2023-05-01T04:20:24.069Z,60.94
2023-05-01T04:22:50.860Z,60.87
2023-05-01T04:25:17.981Z,60.89
2023-05-01T04:27:47.172Z,60.81
2023-05-01T04:30:15.212Z,60.78
2023-05-01T04:32:41.925Z,60.82
2023-05-01T04:35:09.734Z,60.95
2023-05-01T04:37:37.949Z,60.83
2023-05-01T04:40:05.344Z,60.84
2023-05-01T04:42:32.817Z,60.82
2023-05-01T04:45:04.288Z,60.84
2023-05-01T04:47:34.914Z,60.75
2023-05-01T04:50:01.705Z,60.83
2023-05-01T04:52:30.401Z,60.76
2023-05-01T04:54:59.722Z,60.76
2023-05-01T04:57:29.262Z,60.92
2023-05-01T04:59:56.595Z,60.70
2023-05-01T05:02:23.883Z,60.90
2023-05-01T05:04:51.010Z,60.60
2023-05-01T05:07:17.915Z,60.91
2023-05-01T05:10:03.229Z,60.92
2023-05-01T05:12:31.063Z,60.57
2023-05-01T05:14:58.819Z,60.69
2023-05-01T05:17:25.747Z,60.83
2023-05-01T05:19:52.769Z,60.82
2023-05-01T05:22:20.599Z,60.85
2023-05-01T05:25:10.111Z,61.06
2023-05-01T05:27:38.258Z,60.91
2023-05-01T05:30:06.098Z,61.17
2023-05-01T05:32:34.713Z,61.14
2023-05-01T05:35:01.582Z,61.29
2023-05-01T05:37:28.314Z,61.16
2023-05-01T05:39:56.260Z,61.14
2023-05-01T05:42:25.230Z,61.16
2023-05-01T05:44:53.081Z,61.20
2023-05-01T05:47:20.046Z,61.19
2023-05-01T05:49:46.943Z,61.06
2023-05-01T05:52:13.850Z,61.18
2023-05-01T05:54:40.709Z,61.08
2023-05-01T05:57:07.555Z,61.00
2023-05-01T05:59:36.575Z,60.71
2023-05-01T06:02:04.948Z,60.01
2023-05-01T06:04:31.895Z,59.91
2023-05-01T06:06:59.137Z,59.86
2023-05-01T06:09:26.396Z,59.79
2023-05-01T06:11:53.094Z,59.04
2023-05-01T06:14:19.839Z,59.67
2023-05-01T06:16:46.733Z,59.54
2023-05-01T06:19:13.616Z,59.31
2023-05-01T06:21:41.255Z,59.46
2023-05-01T06:24:09.986Z,59.32
2023-05-01T06:26:46.131Z,59.16
2023-05-01T06:29:12.930Z,59.51
2023-05-01T06:31:39.883Z,59.74
2023-05-01T06:34:06.906Z,59.57
2023-05-01T06:36:54.140Z,59.52
2023-05-01T06:39:22.210Z,59.60
2023-05-01T06:41:49.530Z,59.72
2023-05-01T06:44:16.526Z,59.70
2023-05-01T06:46:43.267Z,59.71
2023-05-01T06:49:10.026Z,59.72
2023-05-01T06:51:36.961Z,59.60
2023-05-01T06:54:03.927Z,59.58
2023-05-01T06:56:32.348Z,59.69
2023-05-01T06:58:59.099Z,59.69
2023-05-01T07:01:25.981Z,59.66
2023-05-01T07:03:52.803Z,59.60
2023-05-01T07:06:19.565Z,59.54
2023-05-01T07:08:46.372Z,59.71
2023-05-01T07:11:13.182Z,59.54
2023-05-01T07:13:39.877Z,59.71
2023-05-01T07:16:07.274Z,59.66
2023-05-01T07:18:34.956Z,59.43
2023-05-01T07:21:01.866Z,59.50
2023-05-01T07:23:29.018Z,59.58
2023-05-01T07:25:55.991Z,59.66
2023-05-01T07:28:22.949Z,59.47
2023-05-01T07:30:49.828Z,59.73
2023-05-01T07:33:16.790Z,59.52
2023-05-01T07:35:43.407Z,59.28
2023-05-01T07:38:10.089Z,59.30
2023-05-01T07:40:36.914Z,59.13
2023-05-01T07:43:03.926Z,59.50
2023-05-01T07:45:30.818Z,59.40
2023-05-01T07:47:57.858Z,59.28
2023-05-01T07:50:25.930Z,59.47
2023-05-01T07:52:52.828Z,59.80
2023-05-01T07:55:22.133Z,59.27
2023-05-01T07:57:48.674Z,59.44
2023-05-01T08:00:15.985Z,59.27
2023-05-01T08:02:42.933Z,59.35
2023-05-01T08:05:10.177Z,59.40
2023-05-01T08:07:36.976Z,59.27
2023-05-01T08:10:04.665Z,59.36
2023-05-01T08:12:31.604Z,59.29
2023-05-01T08:14:58.357Z,59.38
2023-05-01T08:17:25.110Z,59.37
2023-05-01T08:19:53.983Z,59.24
2023-05-01T08:22:20.839Z,58.78
2023-05-01T08:24:47.518Z,59.26
2023-05-01T08:27:14.220Z,59.21
2023-05-01T08:29:41.055Z,58.98
2023-05-01T08:32:07.813Z,59.07
2023-05-01T08:34:34.594Z,59.23
2023-05-01T08:37:01.326Z,58.97
2023-05-01T08:39:27.968Z,59.09
2023-05-01T08:41:55.828Z,58.89
2023-05-01T08:44:26.666Z,59.04
2023-05-01T08:47:19.772Z,59.11
2023-05-01T08:49:47.380Z,58.95
2023-05-01T08:52:15.387Z,59.17
2023-05-01T08:54:44.462Z,59.08
2023-05-01T08:57:12.667Z,58.88
2023-05-01T08:59:40.538Z,58.98
2023-05-01T09:02:09.161Z,58.85
2023-05-01T09:04:38.980Z,58.93
2023-05-01T09:07:06.211Z,58.96
2023-05-01T09:09:34.042Z,58.79
2023-05-01T09:12:04.685Z,58.92
2023-05-01T09:14:31.789Z,59.00
2023-05-01T09:16:58.722Z,58.84
2023-05-01T09:19:26.796Z,58.82
2023-05-01T09:21:55.385Z,58.83
2023-05-01T09:24:25.675Z,58.81
2023-05-01T09:26:52.864Z,58.67
2023-05-01T09:29:39.005Z,58.72
2023-05-01T09:32:31.867Z,58.70
2023-05-01T09:35:14.547Z,58.71
2023-05-01T09:37:41.875Z,58.84
2023-05-01T09:40:13.131Z,58.71
2023-05-01T09:42:52.422Z,58.90
2023-05-01T09:45:19.828Z,58.92
2023-05-01T09:47:47.593Z,58.86
2023-05-01T09:50:34.728Z,58.76
2023-05-01T09:53:04.680Z,58.63
2023-05-01T09:55:31.628Z,58.80
2023-05-01T09:58:01.284Z,58.56
2023-05-01T10:00:28.035Z,58.80
2023-05-01T10:02:55.178Z,58.56
2023-05-01T10:05:22.979Z,58.66
2023-05-01T10:07:57.480Z,58.75
2023-05-01T10:10:24.344Z,58.57
2023-05-01T10:12:51.585Z,58.75
2023-05-01T10:15:25.548Z,58.65
2023-05-01T10:17:54.592Z,58.63
2023-05-01T10:20:22.058Z,58.66
2023-05-01T10:22:49.242Z,58.39
2023-05-01T10:25:18.128Z,58.27
2023-05-01T10:27:45.200Z,58.26
2023-05-01T10:30:12.884Z,58.47
2023-05-01T10:32:42.791Z,58.24
2023-05-01T10:35:18.913Z,58.26
2023-05-01T10:37:58.513Z,58.13
2023-05-01T10:40:40.223Z,58.22
2023-05-01T10:43:13.874Z,58.22
2023-05-01T10:45:40.724Z,58.48
2023-05-01T10:48:07.815Z,58.09
2023-05-01T10:50:34.822Z,58.23
2023-05-01T10:53:10.823Z,58.02
2023-05-01T10:55:45.130Z,57.96
2023-05-01T10:58:14.252Z,57.94
2023-05-01T11:00:41.095Z,57.87
2023-05-01T11:03:22.813Z,57.98
2023-05-01T11:06:04.800Z,57.48
2023-05-01T11:08:39.221Z,57.68
2023-05-01T11:11:23.805Z,57.75
2023-05-01T11:14:10.963Z,57.62
2023-05-01T11:16:38.426Z,57.56
2023-05-01T11:19:21.421Z,57.44
2023-05-01T11:21:48.765Z,57.41
2023-05-01T11:24:17.535Z,57.46
2023-05-01T11:26:44.922Z,57.84
2023-05-01T11:29:12.247Z,57.56
2023-05-01T11:31:39.711Z,57.85
2023-05-01T11:34:07.246Z,57.83
2023-05-01T11:36:51.764Z,57.62
2023-05-01T11:39:19.886Z,57.33
2023-05-01T11:41:47.697Z,57.51
2023-05-01T11:44:18.538Z,57.49
2023-05-01T11:46:45.311Z,57.61
2023-05-01T11:49:12.249Z,57.40
2023-05-01T11:51:39.214Z,57.18
2023-05-01T11:54:05.968Z,57.23
2023-05-01T11:56:34.594Z,57.05
2023-05-01T11:59:12.866Z,57.15
2023-05-01T12:01:41.272Z,57.21
2023-05-01T12:04:08.810Z,57.09
2023-05-01T12:06:45.903Z,56.99
2023-05-01T12:09:24.344Z,57.15
2023-05-01T12:11:53.297Z,57.30
2023-05-01T12:14:21.773Z,57.36
2023-05-01T12:16:49.500Z,57.32
2023-05-01T12:19:18.303Z,57.15
2023-05-01T12:21:44.997Z,57.34
2023-05-01T12:24:17.451Z,57.48
2023-05-01T12:26:45.549Z,57.35
2023-05-01T12:29:12.972Z,57.63
2023-05-01T12:31:48.394Z,57.31
2023-05-01T12:34:15.355Z,57.50
2023-05-01T12:36:42.129Z,57.71
2023-05-01T12:39:12.586Z,57.71
2023-05-01T12:41:44.506Z,57.56
2023-05-01T12:44:23.660Z,57.45
2023-05-01T12:49:29.779Z,57.38
2023-05-01T12:51:58.244Z,57.54
2023-05-01T12:54:39.317Z,57.63
2023-05-01T12:57:16.853Z,57.49
2023-05-01T12:59:47.385Z,57.66
2023-05-01T13:02:17.164Z,57.51
2023-05-01T13:04:44.932Z,57.42
2023-05-01T13:07:14.951Z,57.48
2023-05-01T13:09:55.898Z,57.45
2023-05-01T13:12:24.211Z,57.59
2023-05-01T13:14:51.365Z,57.68
2023-05-01T13:17:32.326Z,57.37
2023-05-01T13:20:04.312Z,57.07
2023-05-01T13:22:36.113Z,57.26
2023-05-01T13:25:05.145Z,58.00
2023-05-01T13:27:32.598Z,58.26
2023-05-01T13:30:00.495Z,58.25
2023-05-01T13:32:28.269Z,58.39
2023-05-01T13:34:56.178Z,58.51
2023-05-01T13:37:23.182Z,57.72
2023-05-01T13:39:50.083Z,57.26
2023-05-01T13:42:26.457Z,57.55
2023-05-01T13:44:57.903Z,57.41
2023-05-01T13:47:29.091Z,57.13
2023-05-01T13:49:56.760Z,57.22
2023-05-01T13:52:24.555Z,57.09
2023-05-01T13:54:53.504Z,57.35
2023-05-01T13:57:20.368Z,57.05
2023-05-01T13:59:47.474Z,56.93
2023-05-01T14:02:27.125Z,56.97
2023-05-01T14:04:55.018Z,56.35
2023-05-01T14:07:24.193Z,57.03
2023-05-01T14:09:55.053Z,56.90
2023-05-01T14:12:29.681Z,57.24
2023-05-01T14:14:57.294Z,57.56
2023-05-01T14:17:37.969Z,57.49
2023-05-01T14:20:08.757Z,57.65
2023-05-01T14:22:47.226Z,57.64
2023-05-01T14:25:28.571Z,57.50
2023-05-01T14:27:57.088Z,57.43
2023-05-01T14:30:29.634Z,57.46
2023-05-01T14:32:56.904Z,57.44
2023-05-01T14:35:24.844Z,57.53
2023-05-01T14:37:51.625Z,57.48
2023-05-01T14:40:36.534Z,57.59
2023-05-01T14:43:03.629Z,57.71
2023-05-01T14:45:30.893Z,57.59
2023-05-01T14:47:57.713Z,57.30
2023-05-01T14:50:25.251Z,57.39
2023-05-01T14:52:59.776Z,57.69
2023-05-01T14:55:34.526Z,57.69
2023-05-01T14:58:02.003Z,57.66
2023-05-01T15:00:28.777Z,57.65
2023-05-01T15:02:55.846Z,57.29
2023-05-01T15:05:23.886Z,57.66
2023-05-01T15:07:50.994Z,57.63
2023-05-01T15:10:17.710Z,57.66
2023-05-01T15:12:44.664Z,57.54
2023-05-01T15:15:11.837Z,57.50
2023-05-01T15:17:38.456Z,57.67
2023-05-01T15:20:06.366Z,57.36
2023-05-01T15:22:33.288Z,57.72
2023-05-01T15:25:00.367Z,57.30
2023-05-01T15:27:27.619Z,57.64
2023-05-01T15:29:54.327Z,57.79
2023-05-01T15:32:21.412Z,57.52
2023-05-01T15:34:50.076Z,57.55
2023-05-01T15:37:17.144Z,57.72
2023-05-01T15:39:44.055Z,57.49
2023-05-01T15:42:10.780Z,57.47
2023-05-01T15:44:37.666Z,58.32
2023-05-01T15:47:04.599Z,57.58
2023-05-01T15:49:31.516Z,57.46
2023-05-01T15:51:58.400Z,57.73
2023-05-01T15:54:25.259Z,57.36
2023-05-01T15:56:52.643Z,57.52
2023-05-01T15:59:19.348Z,57.62
2023-05-01T16:01:46.401Z,57.50
2023-05-01T16:04:13.430Z,57.67
2023-05-01T16:06:40.932Z,57.84
2023-05-01T16:09:08.136Z,57.45
2023-05-01T16:11:35.802Z,57.78
2023-05-01T16:14:02.815Z,57.95
2023-05-01T16:16:29.820Z,57.69
2023-05-01T16:18:58.855Z,57.95
2023-05-01T16:21:27.100Z,57.69
2023-05-01T16:23:57.462Z,57.58
2023-05-01T16:26:28.347Z,57.93
2023-05-01T16:29:00.158Z,57.84
2023-05-01T16:31:28.000Z,57.93
2023-05-01T16:33:56.806Z,57.97
2023-05-01T16:36:23.690Z,58.08
2023-05-01T16:38:50.563Z,58.13
2023-05-01T16:41:17.967Z,58.04
2023-05-01T16:43:46.177Z,58.20
2023-05-01T16:46:16.737Z,58.14
2023-05-01T16:48:43.565Z,58.22
2023-05-01T16:51:11.838Z,58.29
2023-05-01T16:53:38.771Z,58.22
2023-05-01T16:56:06.119Z,58.00
2023-05-01T16:58:33.039Z,58.37
2023-05-01T17:01:00.074Z,58.33
2023-05-01T17:03:27.035Z,58.36
2023-05-01T17:05:54.010Z,58.12
2023-05-01T17:08:20.913Z,58.31
2023-05-01T17:10:47.703Z,58.17
2023-05-01T17:13:15.708Z,58.43
2023-05-01T17:15:42.875Z,58.12
2023-05-01T17:18:09.723Z,58.12
2023-05-01T17:20:36.689Z,58.19
2023-05-01T17:23:03.639Z,58.21
2023-05-01T17:25:30.456Z,58.37
2023-05-01T17:27:57.153Z,58.43
2023-05-01T17:30:23.996Z,58.27
2023-05-01T17:32:50.945Z,58.32
2023-05-01T17:35:18.141Z,58.23
2023-05-01T17:37:45.030Z,58.50
2023-05-01T17:40:12.163Z,58.22
2023-05-01T17:42:39.585Z,58.48
2023-05-01T17:45:07.694Z,58.66
2023-05-01T17:47:34.968Z,58.50
2023-05-01T17:50:04.820Z,58.69
2023-05-01T17:52:31.818Z,58.69
2023-05-01T17:54:59.031Z,58.30
2023-05-01T17:57:25.951Z,58.43
2023-05-01T17:59:52.674Z,58.36
2023-05-01T18:02:19.596Z,58.39
2023-05-01T18:04:50.170Z,58.25
2023-05-01T18:07:17.225Z,58.55
2023-05-01T18:09:44.102Z,58.49
2023-05-01T18:12:11.374Z,58.56
2023-05-01T18:14:38.916Z,58.48
2023-05-01T18:17:06.025Z,58.61
2023-05-01T18:19:33.226Z,58.42
2023-05-01T18:22:00.126Z,58.58
2023-05-01T18:24:29.419Z,58.67
2023-05-01T18:26:56.324Z,58.79
2023-05-01T18:29:23.272Z,58.73
2023-05-01T18:31:52.813Z,58.69
2023-05-01T18:34:19.775Z,58.53
2023-05-01T18:36:48.434Z,58.56
2023-05-01T18:39:15.065Z,58.77
2023-05-01T18:41:41.852Z,58.74
2023-05-01T18:44:08.719Z,58.60
2023-05-01T18:46:35.622Z,58.68
2023-05-01T18:49:02.640Z,58.94
2023-05-01T18:51:29.551Z,58.62
2023-05-01T18:53:56.420Z,58.73
2023-05-01T18:56:24.346Z,58.75
2023-05-01T18:58:51.224Z,58.65
2023-05-01T19:01:18.274Z,58.82
2023-05-01T19:03:45.135Z,59.01
2023-05-01T19:06:12.037Z,59.01
2023-05-01T19:08:39.065Z,58.82
2023-05-01T19:11:06.166Z,59.02
2023-05-01T19:13:33.468Z,58.91
2023-05-01T19:16:00.325Z,58.82
2023-05-01T19:18:27.133Z,59.16
2023-05-01T19:20:53.991Z,59.00
2023-05-01T19:23:20.839Z,58.86
2023-05-01T19:25:47.618Z,59.10
2023-05-01T19:28:14.279Z,59.20
2023-05-01T19:30:41.389Z,59.09
2023-05-01T19:33:08.676Z,59.12
2023-05-01T19:35:35.658Z,59.13
2023-05-01T19:38:02.565Z,59.16
2023-05-01T19:40:29.534Z,58.99
2023-05-01T19:42:56.412Z,58.97
2023-05-01T19:45:23.316Z,59.38
2023-05-01T19:47:50.404Z,59.13
2023-05-01T19:50:21.145Z,59.16
2023-05-01T19:52:48.027Z,59.24
2023-05-01T19:55:16.943Z,59.15
2023-05-01T19:57:43.879Z,59.57
2023-05-01T20:00:14.556Z,59.45
2023-05-01T20:02:41.700Z,59.53
2023-05-01T20:05:09.051Z,59.21
2023-05-01T20:07:35.748Z,59.46
2023-05-01T20:10:02.715Z,59.13
2023-05-01T20:12:29.447Z,59.57
2023-05-01T20:14:56.227Z,59.53
2023-05-01T20:17:22.957Z,59.44
2023-05-01T20:19:49.838Z,59.29
2023-05-01T20:22:16.508Z,59.40
2023-05-01T20:24:43.220Z,59.60
2023-05-01T20:27:10.080Z,59.48
2023-05-01T20:29:36.970Z,59.76
2023-05-01T20:32:03.751Z,59.53
2023-05-01T20:34:30.392Z,59.44
2023-05-01T20:36:57.279Z,59.29
2023-05-01T20:39:24.169Z,59.52
2023-05-01T20:41:51.052Z,59.60
2023-05-01T20:44:17.880Z,59.57
2023-05-01T20:46:44.710Z,59.51
2023-05-01T20:49:14.283Z,59.60
2023-05-01T20:51:42.728Z,59.62
2023-05-01T20:54:09.520Z,59.63
2023-05-01T20:56:36.204Z,59.50
2023-05-01T20:59:03.829Z,59.57
2023-05-01T21:01:32.429Z,59.61
2023-05-01T21:04:00.033Z,59.22
2023-05-01T21:06:29.607Z,59.46
2023-05-01T21:08:56.400Z,59.56
2023-05-01T21:11:23.155Z,59.42
2023-05-01T21:13:50.308Z,59.53
2023-05-01T21:16:19.721Z,59.74
2023-05-01T21:18:46.767Z,59.90
2023-05-01T21:21:15.695Z,59.97
2023-05-01T21:23:47.867Z,59.92
2023-05-01T21:26:16.141Z,60.02
2023-05-01T21:28:43.707Z,60.06
2023-05-01T21:31:12.937Z,60.11
2023-05-01T21:33:40.465Z,59.88
2023-05-01T21:36:07.280Z,60.12
2023-05-01T21:38:35.298Z,60.32
2023-05-01T21:41:02.298Z,60.26
2023-05-01T21:43:32.037Z,60.05
2023-05-01T21:45:58.854Z,60.42
2023-05-01T21:48:25.870Z,60.31
2023-05-01T21:50:52.818Z,60.15
2023-05-01T21:53:19.649Z,60.02
2023-05-01T21:55:46.721Z,59.97
2023-05-01T21:58:14.058Z,60.15
2023-05-01T22:00:43.454Z,60.00
2023-05-01T22:03:11.038Z,60.36
2023-05-01T22:05:41.017Z,60.32
2023-05-01T22:08:07.748Z,60.11
2023-05-01T22:10:34.902Z,60.46
2023-05-01T22:13:02.128Z,60.51
2023-05-01T22:15:28.752Z,60.39
2023-05-01T22:17:56.663Z,60.34
2023-05-01T22:20:23.505Z,60.28
2023-05-01T22:22:50.133Z,60.32
2023-05-01T22:25:16.919Z,60.18
2023-05-01T22:27:43.783Z,60.21
2023-05-01T22:30:11.292Z,60.24
2023-05-01T22:32:38.204Z,60.42
2023-05-01T22:35:05.344Z,60.52
2023-05-01T22:37:32.053Z,60.44
2023-05-01T22:39:59.595Z,60.31
2023-05-01T22:42:26.653Z,60.39
2023-05-01T22:44:53.505Z,60.49
2023-05-01T22:47:20.098Z,60.49
2023-05-01T22:49:46.876Z,60.50
2023-05-01T22:52:13.621Z,60.45
2023-05-01T22:54:40.799Z,60.35
2023-05-01T22:57:07.736Z,60.61
2023-05-01T22:59:34.559Z,60.51
2023-05-01T23:02:05.012Z,60.30
2023-05-01T23:04:32.489Z,60.38
2023-05-01T23:06:59.284Z,60.45
2023-05-01T23:09:26.506Z,60.43
2023-05-01T23:11:53.314Z,60.51
2023-05-01T23:14:20.092Z,60.62
2023-05-01T23:16:46.805Z,60.57
2023-05-01T23:19:24.849Z,60.50
2023-05-01T23:22:12.416Z,60.50
2023-05-01T23:24:40.493Z,60.57
2023-05-01T23:27:08.377Z,60.66
2023-05-01T23:29:35.699Z,60.80
2023-05-01T23:32:02.873Z,60.48
2023-05-01T23:34:29.625Z,60.55
2023-05-01T23:36:56.249Z,60.71
2023-05-01T23:39:22.986Z,60.49
2023-05-01T23:41:50.530Z,60.62
2023-05-01T23:44:17.367Z,60.61
2023-05-01T23:46:44.253Z,60.66
2023-05-01T23:49:11.811Z,60.68
2023-05-01T23:51:38.671Z,60.81
2023-05-01T23:54:05.772Z,60.35
2023-05-01T23:56:32.700Z,60.55
2023-05-01T23:58:59.571Z,60.67
